This is the latest recevied weather packets stored in our database for station/object KC3HIX. If no packets are shown the sender has not sent any weather packets the latest 10 day(s).
| Time | Temp. | Humidity | Pressure | Rain* | Wind** | Luminosity | Snow |
|---|---|---|---|---|---|---|---|
| 1777494006 | 13.33° C | 84% | 1008.6 hPa | 0 mm | - | - | - |
| 1777492827 | 13.89° C | 87% | 1008.9 hPa | 0.51 mm | - | - | - |
| 1777492506 | 13.89° C | 87% | 1008.9 hPa | 0.76 mm | - | - | - |
| 1777492207 | 13.89° C | 87% | 1008.6 hPa | 1.27 mm | - | - | - |
| 1777491628 | 13.33° C | 88% | 1008.9 hPa | 2.03 mm | - | - | - |
| 1777490406 | 13.33° C | 90% | 1009.6 hPa | 2.54 mm | - | - | - |
| 1777488906 | 13.89° C | 90% | 1009.9 hPa | 1.78 mm | - | - | - |
| 1777488006 | 14.44° C | 90% | 1010.3 hPa | 0.76 mm | - | - | - |
| 1777486806 | 14.44° C | 89% | 1010.6 hPa | 0.25 mm | - | - | - |
| 1777485927 | 14.44° C | 90% | 1010.6 hPa | 1.27 mm | - | - | - |
| 1777485327 | 13.89° C | 91% | 1011 hPa | 1.52 mm | - | - | - |
| 1777484406 | 13.89° C | 91% | 1011 hPa | 1.78 mm | - | - | - |
| 1777483206 | 13.33° C | 90% | 1011.7 hPa | 1.78 mm | - | - | - |
| 1777482306 | 13.89° C | 87% | 1012.3 hPa | 0.76 mm | - | - | - |
| 1777482006 | 14.44° C | 86% | 1012.7 hPa | 0.51 mm | - | - | - |
| 1777481406 | 15° C | 80% | 1012.7 hPa | 0.25 mm | - | - | - |
| 1777479027 | 16.67° C | 70% | 1012.3 hPa | 0 mm | - | - | - |
| 1777476606 | 16.11° C | 72% | 1012.7 hPa | 0 mm | - | - | - |
| 1777473305 | 15° C | 73% | 1013.4 hPa | 0 mm | - | - | - |
| 1777468205 | 13.89° C | 75% | 1013.4 hPa | 0 mm | - | - | - |
| 1777467005 | 13.89° C | 74% | 1014.1 hPa | 0 mm | - | - | - |
| 1777465505 | 13.33° C | 74% | 1014.1 hPa | 0 mm | - | - | - |
| 1777463705 | 12.78° C | 79% | 1014.1 hPa | 0 mm | - | - | - |
| 1777462805 | 12.78° C | 79% | 1014.4 hPa | 0 mm | - | - | - |
| 1777462205 | 12.22° C | 81% | 1014.8 hPa | 0 mm | - | - | - |
* Rain latest hour (hover to see other rain measurements)
** Current wind speed in m/s (hover to see current wind gust speed)